Time;durP1;ratioP1;P1;durP2;ratioP2;P2;SDS_P1;SDS_P2;PMS_P1;PMS_P2;Temp;Humidity;BMP_temperature;BMP_pressure;BME280_temperature;BME280_humidity;BME280_pressure;Samples;Min_cycle;Max_cycle;Signal;HPM_P1;HPM_P2
2021/04/19 07:28:55;;;;;;;;;;;;;;;10.59;60.67;99849.38;6214877;22;19974;-82
2021/04/19 07:31:21;;;;;;;;;;;;;;;10.59;60.84;99855.53;6214570;23;20189;-82
2021/04/19 07:33:46;;;;;;;;;;;;;;;10.60;60.70;99853.75;6216903;23;19912;-82
2021/04/19 07:36:18;;;;;;;;;;;;;;;10.58;60.84;99845.88;6189330;23;19947;-83
2021/04/19 07:38:44;;;;;;;;;;;;;;;10.58;60.74;99840.56;6187849;23;20150;-82
2021/04/19 07:41:09;;;;;;;;;;;;;;;10.59;60.72;99841.41;6218180;23;19987;-82
2021/04/19 07:43:38;;;;;;;;;;;;;;;10.59;60.79;99838.78;6222351;23;19916;-82
2021/04/19 07:46:08;;;;;;;;;;;;;;;10.60;60.74;99840.50;6220819;23;20269;-82
2021/04/19 07:48:40;;;;;;;;;;;;;;;10.59;60.91;99839.63;6218330;23;19916;-82
2021/04/19 07:51:24;;;;;;;;;;;;;;;10.58;60.95;99837.91;6220777;23;19923;-82
2021/04/19 07:53:50;;;;;;;;;;;;;;;10.60;61.03;99846.66;6222949;23;19989;-82
2021/04/19 07:56:16;;;;;;;;;;;;;;;10.60;60.95;99844.00;6220804;23;19920;-82
2021/04/19 07:58:41;;;;;;;;;;;;;;;10.59;61.07;99839.63;6222060;23;19940;-82
2021/04/19 08:01:07;;;;;;;;;;;;;;;10.60;60.99;99840.50;6220723;23;19916;-82
2021/04/19 08:03:41;;;;;;;;;;;;;;;10.60;61.07;99846.66;6221252;23;19927;-82
2021/04/19 08:06:36;;;;;;;;;;;;;;;10.59;61.07;99844.91;6219989;23;19915;-82
2021/04/19 08:09:05;;;;;;;;;;;;;;;10.60;61.04;99836.06;6188787;23;19959;-82
2021/04/19 08:11:41;;;;;;;;;;;;;;;10.60;61.08;99840.50;6221109;23;19912;-82
2021/04/19 08:14:06;;;;;;;;;;;;;;;10.61;61.23;99839.56;6220728;23;19916;-82
2021/04/19 08:16:32;;;;;;;;;;;;;;;10.61;61.07;99842.22;6222471;23;19920;-82
2021/04/19 08:19:01;;;;;;;;;;;;;;;10.60;61.48;99844.00;6221327;23;19927;-82
2021/04/19 08:21:31;;;;;;;;;;;;;;;10.61;61.06;99842.22;6220036;23;19923;-82
2021/04/19 08:24:09;;;;;;;;;;;;;;;10.60;61.31;99846.66;6218990;23;20193;-82
2021/04/19 08:26:54;;;;;;;;;;;;;;;10.61;61.34;99843.09;6220550;23;19919;-82
2021/04/19 08:29:38;;;;;;;;;;;;;;;10.61;61.38;99836.91;6219410;23;20111;-82
2021/04/19 08:32:05;;;;;;;;;;;;;;;10.60;61.40;99833.41;6192880;23;19916;-81
2021/04/19 08:34:30;;;;;;;;;;;;;;;10.60;61.42;99841.34;6219607;23;20227;-82
2021/04/19 08:36:57;;;;;;;;;;;;;;;10.60;61.35;99843.16;6221264;23;19920;-82
2021/04/19 08:39:23;;;;;;;;;;;;;;;10.60;61.21;99836.06;6194532;23;19916;-82
2021/04/19 08:41:49;;;;;;;;;;;;;;;10.61;61.10;99839.56;6217131;23;19915;-82
2021/04/19 08:44:14;;;;;;;;;;;;;;;10.62;61.34;99850.09;6217557;23;19916;-82
2021/04/19 08:46:40;;;;;;;;;;;;;;;10.62;61.59;99846.59;6191279;23;19916;-82
2021/04/19 08:49:05;;;;;;;;;;;;;;;10.62;61.40;99843.94;6216350;23;19955;-82
2021/04/19 08:51:31;;;;;;;;;;;;;;;10.62;61.48;99846.59;6215759;23;19932;-82
2021/04/19 08:53:56;;;;;;;;;;;;;;;10.62;61.44;99843.94;6212008;23;19995;-82
2021/04/19 08:56:21;;;;;;;;;;;;;;;10.61;61.50;99845.75;6213612;23;19931;-83
2021/04/19 08:58:47;;;;;;;;;;;;;;;10.61;61.58;99848.41;6214684;23;19927;-82
2021/04/19 09:01:12;;;;;;;;;;;;;;;10.62;61.51;99843.94;6188270;23;19920;-82
2021/04/19 09:03:38;;;;;;;;;;;;;;;10.62;61.74;99841.28;6216397;23;20431;-82
2021/04/19 09:06:16;;;;;;;;;;;;;;;10.61;61.55;99840.44;6223385;23;19922;-82
2021/04/19 09:08:41;;;;;;;;;;;;;;;10.61;61.63;99840.44;6218389;23;19951;-82
2021/04/19 09:11:07;;;;;;;;;;;;;;;10.60;61.67;99840.50;6214580;23;19923;-82
2021/04/19 09:13:34;;;;;;;;;;;;;;;10.60;61.64;99841.34;6213553;23;19920;-81
2021/04/19 09:16:12;;;;;;;;;;;;;;;10.60;61.66;99843.16;6215489;23;19924;-82
2021/04/19 09:18:38;;;;;;;;;;;;;;;10.60;61.71;99853.75;6220333;23;19924;-83
2021/04/19 09:21:03;;;;;;;;;;;;;;;10.60;61.50;99857.25;6223372;23;20182;-82
2021/04/19 09:23:31;;;;;;;;;;;;;;;10.59;61.75;99844.91;6220661;23;19923;-82
2021/04/19 09:25:57;;;;;;;;;;;;;;;10.61;61.62;99848.41;6220768;23;19936;-82
2021/04/19 09:28:41;;;;;;;;;;;;;;;10.61;61.68;99851.03;6220175;23;20323;-82
2021/04/19 09:31:07;;;;;;;;;;;;;;;10.61;61.73;99837.78;6222024;23;19922;-82
2021/04/19 09:33:32;;;;;;;;;;;;;;;10.62;61.72;99849.25;6220076;23;19971;-82
2021/04/19 09:35:57;;;;;;;;;;;;;;;10.61;61.60;99845.75;6193842;23;20312;-82
2021/04/19 09:38:26;;;;;;;;;;;;;;;10.62;61.63;99843.94;6221748;23;19916;-82
2021/04/19 09:40:54;;;;;;;;;;;;;;;10.63;61.69;99840.38;6196253;23;19927;-82
2021/04/19 09:43:38;;;;;;;;;;;;;;;10.62;61.64;99847.44;6222643;23;19912;-81
2021/04/19 09:46:07;;;;;;;;;;;;;;;10.61;61.76;99847.50;6221179;23;19923;-82
2021/04/19 09:48:35;;;;;;;;;;;;;;;10.62;61.67;99855.41;6220928;23;19915;-82
2021/04/19 09:51:18;;;;;;;;;;;;;;;10.62;61.96;99852.75;6195104;23;20090;-82
2021/04/19 09:53:51;;;;;;;;;;;;;;;10.63;61.74;99850.97;6195095;23;19927;-82
2021/04/19 09:56:21;;;;;;;;;;;;;;;10.61;61.72;99851.03;6220868;23;20297;-83
2021/04/19 09:58:46;;;;;;;;;;;;;;;10.62;61.90;99854.53;6193636;23;20472;-82
2021/04/19 10:01:12;;;;;;;;;;;;;;;10.61;61.98;99856.34;6218304;23;19951;-83
2021/04/19 10:03:37;;;;;;;;;;;;;;;10.62;61.88;99854.53;6220676;23;20017;-83
2021/04/19 10:06:03;;;;;;;;;;;;;;;10.63;61.82;99866.88;6218921;23;19927;-82
2021/04/19 10:08:30;;;;;;;;;;;;;;;10.63;62.09;99858.94;6192630;23;19920;-82
2021/04/19 10:10:56;;;;;;;;;;;;;;;10.63;61.89;99854.47;6219320;23;19915;-82
2021/04/19 10:13:27;;;;;;;;;;;;;;;10.63;62.22;99845.69;6218450;23;19919;-81
2021/04/19 10:16:03;;;;;;;;;;;;;;;10.64;62.20;99848.25;6220299;23;19928;-82
2021/04/19 10:18:29;;;;;;;;;;;;;;;10.65;62.12;99849.13;6192562;23;20102;-82
2021/04/19 10:20:54;;;;;;;;;;;;;;;10.65;62.36;99854.41;6193670;23;19916;-82
2021/04/19 10:23:22;;;;;;;;;;;;;;;10.65;62.19;99852.63;6193959;23;19972;-82
2021/04/19 10:25:53;;;;;;;;;;;;;;;10.65;62.25;99857.91;6219500;23;20193;-82
2021/04/19 10:28:28;;;;;;;;;;;;;;;10.64;62.19;99853.56;6221671;23;19927;-82
2021/04/19 10:31:07;;;;;;;;;;;;;;;10.65;62.28;99857.06;6222123;23;19931;-82
2021/04/19 10:33:33;;;;;;;;;;;;;;;10.63;62.19;99849.19;6220172;23;19919;-82
2021/04/19 10:36:09;;;;;;;;;;;;;;;10.64;62.22;99847.38;6221190;23;19920;-82
2021/04/19 10:38:34;;;;;;;;;;;;;;;10.65;62.18;99849.97;6220185;23;19943;-82
2021/04/19 10:40:59;;;;;;;;;;;;;;;10.65;62.30;99842.03;6220794;23;19916;-82
2021/04/19 10:43:25;;;;;;;;;;;;;;;10.66;62.42;99846.41;6221081;23;19916;-82
2021/04/19 10:45:50;;;;;;;;;;;;;;;10.65;62.28;99841.16;6222782;23;19988;-83
2021/04/19 10:48:29;;;;;;;;;;;;;;;10.65;62.50;99836.72;6220866;23;20389;-81
2021/04/19 10:50:59;;;;;;;;;;;;;;;10.65;62.42;99838.53;6218412;23;19923;-81
2021/04/19 10:53:31;;;;;;;;;;;;;;;10.65;62.50;99830.56;6191369;23;19916;-81
2021/04/19 10:55:57;;;;;;;;;;;;;;;10.66;62.39;99827.00;6220187;23;20118;-81
2021/04/19 10:58:23;;;;;;;;;;;;;;;10.67;62.53;99834.88;6222064;23;19930;-82
2021/04/19 11:00:48;;;;;;;;;;;;;;;10.66;62.60;99825.19;6221687;23;19916;-82
2021/04/19 11:03:14;;;;;;;;;;;;;;;10.66;62.70;99822.56;6220769;23;19923;-82
2021/04/19 11:05:39;;;;;;;;;;;;;;;10.66;62.54;99825.19;6220466;23;19923;-82
2021/04/19 11:08:04;;;;;;;;;;;;;;;10.67;62.94;99828.72;6220789;23;19919;-82
2021/04/19 11:10:30;;;;;;;;;;;;;;;10.67;62.81;99821.63;6218925;23;19923;-81
2021/04/19 11:13:01;;;;;;;;;;;;;;;10.67;62.76;99819.00;6219052;23;20112;-82
2021/04/19 11:15:27;;;;;;;;;;;;;;;10.68;62.87;99818.03;6218786;23;19930;-82
2021/04/19 11:17:53;;;;;;;;;;;;;;;10.68;62.75;99818.03;6219677;23;19927;-82
2021/04/19 11:20:19;;;;;;;;;;;;;;;10.67;62.71;99811.03;6219530;23;19911;-82
2021/04/19 11:22:45;;;;;;;;;;;;;;;10.69;62.62;99813.59;6219503;23;20338;-82
2021/04/19 11:25:22;;;;;;;;;;;;;;;10.68;62.79;99807.44;6219540;23;19923;-82
2021/04/19 11:27:49;;;;;;;;;;;;;;;10.69;62.69;99803.00;6219362;23;19924;-83
2021/04/19 11:30:24;;;;;;;;;;;;;;;10.69;62.68;99806.53;6219547;23;19983;-80
2021/04/19 11:33:19;;;;;;;;;;;;;;;10.70;63.21;99800.28;6218650;23;19960;-82
2021/04/19 11:35:45;;;;;;;;;;;;;;;10.71;62.78;99801.16;6160875;23;19920;-82
2021/04/19 11:38:14;;;;;;;;;;;;;;;10.71;62.74;99804.66;6192140;23;19912;-82
2021/04/19 11:40:40;;;;;;;;;;;;;;;10.71;62.58;99796.72;6220728;23;19920;-82
2021/04/19 11:43:32;;;;;;;;;;;;;;;10.71;62.65;99791.41;6221186;23;19912;-82
2021/04/19 11:46:05;;;;;;;;;;;;;;;10.72;62.71;99787.84;6212356;23;19916;-82
2021/04/19 11:48:31;;;;;;;;;;;;;;;10.73;62.82;99792.19;6218895;23;19912;-81
2021/04/19 11:50:57;;;;;;;;;;;;;;;10.72;62.64;99787.84;6219569;23;19947;-81
2021/04/19 11:53:25;;;;;;;;;;;;;;;10.73;62.71;99784.25;6193436;23;19916;-82
2021/04/19 11:55:51;;;;;;;;;;;;;;;10.76;63.39;99782.41;6192083;23;19926;-82
2021/04/19 11:58:16;;;;;;;;;;;;;;;10.78;63.22;99781.41;6191606;23;20315;-82
2021/04/19 12:00:42;;;;;;;;;;;;;;;10.77;62.72;99781.47;6219105;23;19920;-82
2021/04/19 12:03:07;;;;;;;;;;;;;;;10.78;62.85;99780.53;6193109;23;19922;-82
2021/04/19 12:05:32;;;;;;;;;;;;;;;10.78;62.91;99780.53;6193271;23;19920;-82
2021/04/19 12:07:58;;;;;;;;;;;;;;;10.78;62.62;99776.09;6218052;23;20104;-83
2021/04/19 12:10:23;;;;;;;;;;;;;;;10.78;62.67;99768.16;6220053;23;19990;-82
2021/04/19 12:12:49;;;;;;;;;;;;;;;10.80;62.82;99776.03;6221443;23;19916;-82
2021/04/19 12:15:14;;;;;;;;;;;;;;;10.80;62.78;99770.72;6220697;23;19915;-82
2021/04/19 12:17:40;;;;;;;;;;;;;;;10.78;62.89;99770.78;6221817;23;19916;-82
2021/04/19 12:20:05;;;;;;;;;;;;;;;10.79;62.76;99775.19;6222505;23;19915;-82
2021/04/19 12:22:31;;;;;;;;;;;;;;;10.80;62.62;99766.31;6222715;23;20414;-82
2021/04/19 12:24:56;;;;;;;;;;;;;;;10.80;62.77;99771.63;6223085;23;19916;-83
2021/04/19 12:27:22;;;;;;;;;;;;;;;10.80;63.40;99766.31;6222061;23;19916;-82
2021/04/19 12:29:47;;;;;;;;;;;;;;;10.81;62.81;99764.50;6222130;23;19943;-82
2021/04/19 12:32:13;;;;;;;;;;;;;;;10.80;62.87;99762.78;6196107;23;20313;-83
2021/04/19 12:34:38;;;;;;;;;;;;;;;10.81;62.89;99760.06;6222942;23;20001;-82
2021/04/19 12:37:03;;;;;;;;;;;;;;;10.80;62.92;99761.00;6221656;23;19931;-82
2021/04/19 12:39:29;;;;;;;;;;;;;;;10.81;62.73;99765.38;6221256;23;19947;-81
2021/04/19 12:41:54;;;;;;;;;;;;;;;10.83;62.81;99765.28;6194558;23;19920;-82
